createdAt,value
2022-07-26T00:03:04.503Z,1.05
2022-07-26T00:06:26.545Z,1.30
2022-07-26T00:09:48.683Z,1.60
2022-07-26T00:13:11.218Z,1.48
2022-07-26T00:16:33.219Z,1.13
2022-07-26T00:19:55.059Z,1.20
2022-07-26T00:23:19.288Z,1.13
2022-07-26T00:26:41.089Z,1.38
2022-07-26T00:30:06.191Z,1.30
2022-07-26T00:33:27.988Z,0.98
2022-07-26T00:36:49.885Z,1.20
2022-07-26T00:40:12.209Z,1.10
2022-07-26T00:43:34.211Z,1.27
2022-07-26T00:46:57.128Z,0.90
2022-07-26T00:50:19.558Z,1.00
2022-07-26T00:53:41.323Z,1.00
2022-07-26T00:57:03.299Z,0.95
2022-07-26T01:00:28.538Z,0.93
2022-07-26T01:03:55.500Z,1.00
2022-07-26T01:07:17.526Z,1.00
2022-07-26T01:10:39.955Z,1.00
2022-07-26T01:14:01.784Z,1.33
2022-07-26T01:17:23.712Z,1.10
2022-07-26T01:20:45.795Z,1.10
2022-07-26T01:24:08.158Z,1.38
2022-07-26T01:27:33.990Z,1.23
2022-07-26T01:30:56.189Z,1.23
2022-07-26T01:34:18.565Z,1.00
2022-07-26T01:37:41.484Z,1.10
2022-07-26T01:41:03.233Z,1.27
2022-07-26T01:44:25.155Z,0.90
2022-07-26T01:47:49.999Z,0.98
2022-07-26T01:51:11.805Z,1.17
2022-07-26T01:54:33.566Z,1.13
2022-07-26T01:57:55.425Z,1.60
2022-07-26T02:01:17.308Z,1.10
2022-07-26T02:04:59.045Z,0.90
2022-07-26T02:08:21.275Z,1.02
2022-07-26T02:11:48.635Z,1.08
2022-07-26T02:15:12.630Z,1.20
2022-07-26T02:18:34.821Z,1.13
2022-07-26T02:21:56.682Z,1.20
2022-07-26T02:25:18.547Z,1.00
2022-07-26T02:28:40.356Z,1.17
2022-07-26T02:32:02.088Z,1.10
2022-07-26T02:35:23.940Z,1.63
2022-07-26T02:38:45.671Z,1.08
2022-07-26T02:42:07.508Z,1.08
2022-07-26T02:45:29.309Z,1.00
2022-07-26T02:48:51.267Z,0.85
2022-07-26T02:52:13.246Z,1.27
2022-07-26T02:55:35.110Z,1.25
2022-07-26T02:58:56.967Z,1.13
2022-07-26T03:02:18.760Z,1.20
2022-07-26T03:05:41.153Z,1.13
2022-07-26T03:09:03.324Z,1.00
2022-07-26T03:12:25.183Z,1.20
2022-07-26T03:15:47.434Z,1.00
2022-07-26T03:19:09.264Z,1.58
2022-07-26T03:22:31.339Z,1.30
2022-07-26T03:25:53.662Z,1.35
2022-07-26T03:29:15.465Z,1.30
2022-07-26T03:32:37.284Z,1.00
2022-07-26T03:35:59.009Z,1.40
2022-07-26T03:39:22.697Z,0.90
2022-07-26T03:42:46.389Z,1.10
2022-07-26T03:46:08.968Z,1.42
2022-07-26T03:49:30.817Z,1.20
2022-07-26T03:52:52.618Z,1.10
2022-07-26T03:56:31.406Z,1.52
2022-07-26T03:59:53.179Z,1.00
2022-07-26T04:03:15.035Z,1.35
2022-07-26T04:06:38.168Z,1.48
2022-07-26T04:09:59.925Z,1.10
2022-07-26T04:13:23.930Z,1.70
2022-07-26T04:16:45.715Z,1.45
2022-07-26T04:20:10.109Z,1.70
2022-07-26T04:23:31.822Z,1.85
2022-07-26T04:26:53.489Z,1.80
2022-07-26T04:30:15.854Z,1.70
2022-07-26T04:33:37.688Z,1.90
2022-07-26T04:36:59.394Z,1.65
2022-07-26T04:40:23.554Z,1.90
2022-07-26T04:43:45.611Z,2.33
2022-07-26T04:47:07.409Z,1.40
2022-07-26T04:50:29.368Z,2.03
2022-07-26T04:53:51.279Z,1.88
2022-07-26T04:57:12.998Z,2.47
2022-07-26T05:00:56.432Z,1.73
2022-07-26T05:04:16.937Z,1.55
2022-07-26T05:07:43.455Z,1.70
2022-07-26T05:11:05.205Z,1.80
2022-07-26T05:14:26.996Z,2.00
2022-07-26T05:17:50.210Z,2.10
2022-07-26T05:21:12.217Z,2.65
2022-07-26T05:24:34.022Z,2.40
2022-07-26T05:27:55.883Z,3.42
2022-07-26T05:31:17.613Z,2.55
2022-07-26T05:34:39.380Z,2.83
2022-07-26T05:38:01.076Z,2.33
2022-07-26T05:41:22.853Z,2.63
2022-07-26T05:44:44.654Z,2.05
2022-07-26T05:48:07.183Z,2.22
2022-07-26T05:51:30.191Z,2.35
2022-07-26T05:54:52.013Z,2.25
2022-07-26T05:58:13.932Z,2.38
2022-07-26T06:01:35.854Z,2.15
2022-07-26T06:04:57.842Z,2.28
2022-07-26T06:08:20.784Z,2.30
2022-07-26T06:11:42.907Z,2.00
2022-07-26T06:15:05.930Z,2.10
2022-07-26T06:18:37.512Z,2.50
2022-07-26T06:21:59.341Z,2.67
2022-07-26T06:25:21.011Z,2.67
2022-07-26T06:28:43.914Z,2.50
2022-07-26T06:32:05.998Z,2.70
2022-07-26T06:35:30.857Z,2.50
2022-07-26T06:38:53.479Z,2.60
2022-07-26T06:42:15.289Z,2.78
2022-07-26T06:45:37.098Z,2.55
2022-07-26T06:48:59.003Z,2.28
2022-07-26T06:52:20.734Z,2.00
2022-07-26T06:55:42.668Z,2.30
2022-07-26T06:59:09.277Z,2.30
2022-07-26T07:02:31.277Z,2.47
2022-07-26T07:05:53.036Z,2.38
2022-07-26T07:09:14.866Z,2.75
2022-07-26T07:12:39.821Z,2.70
2022-07-26T07:16:01.499Z,2.80
2022-07-26T07:19:23.814Z,2.40
2022-07-26T07:22:45.603Z,2.42
2022-07-26T07:26:08.663Z,2.78
2022-07-26T07:29:30.515Z,2.47
2022-07-26T07:32:52.558Z,2.50
2022-07-26T07:36:14.566Z,2.70
2022-07-26T07:39:38.702Z,2.67
2022-07-26T07:43:00.750Z,2.42
2022-07-26T07:46:22.614Z,2.60
2022-07-26T07:49:44.609Z,2.17
2022-07-26T07:53:06.246Z,2.30
2022-07-26T07:56:28.166Z,2.20
2022-07-26T07:59:50.123Z,2.13
2022-07-26T08:03:11.804Z,3.70
2022-07-26T08:06:33.623Z,1.88
2022-07-26T08:09:55.488Z,2.03
2022-07-26T08:13:17.232Z,2.20
2022-07-26T08:16:44.571Z,2.55
2022-07-26T08:20:06.897Z,1.92
2022-07-26T08:23:30.704Z,2.22
2022-07-26T08:26:53.986Z,2.10
2022-07-26T08:30:15.844Z,2.28
2022-07-26T08:33:40.775Z,1.90
2022-07-26T08:37:18.695Z,2.03
2022-07-26T08:40:40.663Z,2.28
2022-07-26T08:44:11.104Z,2.13
2022-07-26T08:47:37.844Z,2.65
2022-07-26T08:51:10.991Z,1.92
2022-07-26T08:54:33.248Z,2.17
2022-07-26T08:57:55.349Z,2.25
2022-07-26T09:01:17.352Z,3.47
2022-07-26T09:04:46.146Z,2.40
2022-07-26T09:08:26.371Z,2.10
2022-07-26T09:11:48.426Z,2.33
2022-07-26T09:15:28.240Z,2.25
2022-07-26T09:18:50.127Z,2.60
2022-07-26T09:22:15.775Z,2.38
2022-07-26T09:25:44.324Z,2.25
2022-07-26T09:29:12.298Z,2.05
2022-07-26T09:32:34.450Z,2.42
2022-07-26T09:36:05.896Z,1.90
2022-07-26T09:39:34.158Z,1.60
2022-07-26T09:43:06.966Z,2.15
2022-07-26T09:46:34.237Z,1.65
2022-07-26T09:50:16.506Z,1.90
2022-07-26T09:53:47.286Z,1.70
2022-07-26T09:57:09.002Z,2.17
2022-07-26T10:00:31.266Z,2.80
2022-07-26T10:03:53.027Z,2.22
2022-07-26T10:07:15.472Z,2.17
2022-07-26T10:10:43.475Z,2.30
2022-07-26T10:14:34.174Z,2.50
2022-07-26T10:17:55.938Z,2.00
2022-07-26T10:21:32.127Z,1.67
2022-07-26T10:24:58.268Z,2.28
2022-07-26T10:28:28.516Z,1.73
2022-07-26T10:32:13.866Z,1.88
2022-07-26T10:35:44.445Z,1.65
2022-07-26T10:39:12.380Z,1.90
2022-07-26T10:42:44.469Z,1.73
2022-07-26T10:46:13.560Z,1.48
2022-07-26T10:49:38.480Z,1.23
2022-07-26T10:53:00.507Z,1.30
2022-07-26T10:56:22.409Z,1.70
2022-07-26T10:59:55.942Z,1.52
2022-07-26T11:03:18.215Z,1.30
2022-07-26T11:06:43.018Z,1.50
2022-07-26T11:10:05.257Z,1.48
2022-07-26T11:13:29.098Z,2.20
2022-07-26T11:16:51.031Z,1.75
2022-07-26T11:20:29.415Z,1.60
2022-07-26T11:23:51.944Z,1.80
2022-07-26T11:27:13.910Z,1.25
2022-07-26T11:30:35.691Z,1.58
2022-07-26T11:33:57.543Z,1.50
2022-07-26T11:37:19.224Z,1.58
2022-07-26T11:40:46.409Z,1.30
2022-07-26T11:44:19.195Z,1.70
2022-07-26T11:47:40.843Z,1.77
2022-07-26T11:51:23.430Z,1.30
2022-07-26T11:54:50.713Z,1.80
2022-07-26T11:58:12.523Z,1.45
2022-07-26T12:01:35.289Z,1.25
2022-07-26T12:05:13.977Z,1.33
2022-07-26T12:08:50.406Z,1.48
2022-07-26T12:12:24.305Z,1.48
2022-07-26T12:15:48.475Z,1.38
2022-07-26T12:19:12.031Z,1.48
2022-07-26T12:22:33.766Z,2.00
2022-07-26T12:25:55.508Z,1.13
2022-07-26T12:29:29.790Z,1.23
2022-07-26T12:32:54.313Z,1.00
2022-07-26T12:36:27.658Z,1.48
2022-07-26T12:40:10.428Z,1.30
2022-07-26T12:43:41.709Z,1.10
2022-07-26T12:47:05.656Z,1.30
2022-07-26T12:50:29.727Z,1.17
2022-07-26T12:53:51.588Z,2.58
2022-07-26T12:57:13.849Z,1.40
2022-07-26T13:00:35.616Z,1.00
2022-07-26T13:03:57.531Z,1.00
2022-07-26T13:07:20.224Z,1.27
2022-07-26T13:10:42.441Z,1.10
2022-07-26T13:14:04.293Z,1.17
2022-07-26T13:17:26.015Z,0.90
2022-07-26T13:20:47.856Z,0.80
2022-07-26T13:24:09.928Z,0.63
2022-07-26T13:27:35.946Z,0.93
2022-07-26T13:30:58.577Z,0.90
2022-07-26T13:34:20.750Z,0.77
2022-07-26T13:37:42.473Z,1.20
2022-07-26T13:41:04.557Z,1.20
2022-07-26T13:44:27.038Z,0.90
2022-07-26T13:47:48.860Z,0.80
2022-07-26T13:51:11.396Z,0.93
2022-07-26T13:54:34.569Z,0.80
2022-07-26T13:57:58.213Z,1.00
2022-07-26T14:01:20.395Z,0.90
2022-07-26T14:05:02.133Z,0.90
2022-07-26T14:08:24.369Z,0.90
2022-07-26T14:11:46.330Z,1.00
2022-07-26T14:15:13.815Z,2.00
2022-07-26T14:18:37.184Z,1.00
2022-07-26T14:22:00.474Z,0.90
2022-07-26T14:25:27.031Z,0.82
2022-07-26T14:28:48.893Z,1.45
2022-07-26T14:32:12.634Z,1.42
2022-07-26T14:35:34.585Z,0.80
2022-07-26T14:38:56.466Z,1.10
2022-07-26T14:42:21.912Z,0.98
2022-07-26T14:45:47.945Z,0.90
2022-07-26T14:49:09.850Z,0.55
2022-07-26T14:52:31.770Z,0.60
2022-07-26T14:55:53.683Z,0.90
2022-07-26T14:59:16.835Z,0.80
2022-07-26T15:02:43.676Z,0.68
2022-07-26T15:06:05.685Z,0.82
2022-07-26T15:09:27.556Z,0.55
2022-07-26T15:12:49.358Z,0.60
2022-07-26T15:16:11.182Z,0.40
2022-07-26T15:19:33.001Z,0.82
2022-07-26T15:22:57.109Z,0.70
2022-07-26T15:26:18.924Z,1.25
2022-07-26T15:29:40.833Z,0.77
2022-07-26T15:33:02.855Z,0.77
2022-07-26T15:36:25.287Z,2.05
2022-07-26T15:39:47.087Z,0.95
2022-07-26T15:43:08.948Z,1.48
2022-07-26T15:46:30.757Z,2.20
2022-07-26T15:49:52.650Z,1.80
2022-07-26T15:53:16.026Z,1.80
2022-07-26T15:56:37.916Z,1.50
2022-07-26T16:00:03.787Z,1.10
2022-07-26T16:03:34.153Z,0.95
2022-07-26T16:06:55.928Z,1.25
2022-07-26T16:10:17.698Z,1.40
2022-07-26T16:13:39.430Z,1.30
2022-07-26T16:17:01.958Z,1.55
2022-07-26T16:20:23.769Z,1.55
2022-07-26T16:23:45.586Z,2.50
2022-07-26T16:27:07.515Z,1.73
2022-07-26T16:30:29.431Z,2.55
2022-07-26T16:33:51.154Z,1.83
2022-07-26T16:37:12.950Z,1.15
2022-07-26T16:40:34.923Z,1.45
2022-07-26T16:43:57.017Z,0.90
2022-07-26T16:47:18.674Z,1.30
2022-07-26T16:50:40.935Z,2.08
2022-07-26T16:54:03.335Z,1.10
2022-07-26T16:57:25.157Z,1.27
2022-07-26T17:00:48.382Z,1.00
2022-07-26T17:04:10.779Z,0.98
2022-07-26T17:07:32.627Z,1.10
2022-07-26T17:10:55.369Z,1.00
2022-07-26T17:14:17.754Z,1.08
2022-07-26T17:17:39.546Z,1.35
2022-07-26T17:21:01.846Z,0.80
2022-07-26T17:24:23.696Z,0.98
2022-07-26T17:27:45.484Z,1.23
2022-07-26T17:31:07.227Z,1.23
2022-07-26T17:34:29.233Z,1.65
2022-07-26T17:37:55.373Z,1.70
2022-07-26T17:41:19.331Z,1.45
2022-07-26T17:44:41.242Z,1.02
2022-07-26T17:48:06.281Z,1.60
2022-07-26T17:51:28.419Z,1.13
2022-07-26T17:54:50.714Z,1.15
2022-07-26T17:58:12.550Z,1.45
2022-07-26T18:01:34.453Z,0.88
2022-07-26T18:04:56.206Z,1.55
2022-07-26T18:08:18.346Z,1.02
2022-07-26T18:11:40.435Z,1.40
2022-07-26T18:15:02.280Z,1.50
2022-07-26T18:18:24.174Z,1.08
2022-07-26T18:21:46.006Z,1.25
2022-07-26T18:25:08.196Z,1.30
2022-07-26T18:28:29.868Z,1.65
2022-07-26T18:31:52.893Z,1.52
2022-07-26T18:35:14.846Z,1.40
2022-07-26T18:38:37.299Z,1.50
2022-07-26T18:41:59.103Z,1.50
2022-07-26T18:45:20.901Z,2.03
2022-07-26T18:48:42.871Z,2.22
2022-07-26T18:52:08.281Z,1.95
2022-07-26T18:55:30.622Z,1.60
2022-07-26T18:58:52.870Z,1.50
2022-07-26T19:02:15.689Z,1.52
2022-07-26T19:05:37.560Z,2.00
2022-07-26T19:09:00.549Z,1.65
2022-07-26T19:12:22.249Z,1.45
2022-07-26T19:15:44.180Z,1.73
2022-07-26T19:19:06.074Z,1.52
2022-07-26T19:22:29.115Z,1.75
2022-07-26T19:25:51.006Z,1.70
2022-07-26T19:29:13.435Z,1.67
2022-07-26T19:32:35.959Z,2.10
2022-07-26T19:35:58.912Z,2.30
2022-07-26T19:39:21.162Z,2.33
2022-07-26T19:42:43.158Z,2.05
2022-07-26T19:46:05.019Z,2.22
2022-07-26T19:49:26.882Z,2.13
2022-07-26T19:52:48.743Z,1.80
2022-07-26T19:56:10.723Z,1.55
2022-07-26T19:59:32.648Z,1.90
2022-07-26T20:02:54.418Z,1.77
2022-07-26T20:06:16.265Z,1.73
2022-07-26T20:09:38.190Z,1.80
2022-07-26T20:12:59.940Z,1.67
2022-07-26T20:16:22.012Z,2.28
2022-07-26T20:19:43.846Z,1.80
2022-07-26T20:23:10.744Z,1.80
2022-07-26T20:26:32.636Z,1.83
2022-07-26T20:30:00.397Z,2.10
2022-07-26T20:33:24.315Z,1.73
2022-07-26T20:36:47.430Z,1.63
2022-07-26T20:40:11.141Z,1.50
2022-07-26T20:43:32.841Z,1.60
2022-07-26T20:46:56.280Z,1.70
2022-07-26T20:50:18.688Z,1.42
2022-07-26T20:53:40.548Z,1.60
2022-07-26T20:57:04.192Z,1.58
2022-07-26T21:00:27.152Z,1.30
2022-07-26T21:03:49.372Z,1.30
2022-07-26T21:07:11.296Z,1.67
2022-07-26T21:10:33.302Z,1.30
2022-07-26T21:13:55.268Z,1.52
2022-07-26T21:17:17.677Z,1.60
2022-07-26T21:20:40.593Z,2.03
2022-07-26T21:24:02.633Z,1.40
2022-07-26T21:27:24.390Z,1.30
2022-07-26T21:30:46.146Z,1.40
2022-07-26T21:34:07.964Z,1.52
2022-07-26T21:37:29.831Z,1.70
2022-07-26T21:40:51.615Z,1.50
2022-07-26T21:44:13.433Z,1.55
2022-07-26T21:47:35.195Z,1.52
2022-07-26T21:50:57.579Z,1.25
2022-07-26T21:54:19.363Z,1.50
2022-07-26T21:57:44.313Z,1.40
2022-07-26T22:01:08.439Z,1.73
2022-07-26T22:04:30.776Z,1.27
2022-07-26T22:07:52.445Z,1.83
2022-07-26T22:11:14.652Z,1.35
2022-07-26T22:14:37.856Z,1.60
2022-07-26T22:18:00.701Z,1.52
2022-07-26T22:21:22.478Z,1.73
2022-07-26T22:24:44.202Z,1.45
2022-07-26T22:28:07.780Z,1.48
2022-07-26T22:31:29.831Z,1.55
2022-07-26T22:34:51.731Z,1.70
2022-07-26T22:38:13.573Z,1.42
2022-07-26T22:41:51.481Z,2.05
2022-07-26T22:45:17.074Z,1.63
2022-07-26T22:48:39.904Z,1.70
2022-07-26T22:52:04.051Z,1.40
2022-07-26T22:55:25.921Z,2.13
2022-07-26T22:58:47.691Z,1.90
2022-07-26T23:02:09.502Z,1.60
2022-07-26T23:05:45.644Z,1.42
2022-07-26T23:09:08.715Z,1.48
2022-07-26T23:12:30.886Z,1.65
2022-07-26T23:15:56.772Z,1.65
2022-07-26T23:19:21.689Z,1.50
2022-07-26T23:22:43.588Z,1.70
2022-07-26T23:26:05.421Z,1.70
2022-07-26T23:29:27.157Z,1.60
2022-07-26T23:32:48.969Z,1.70
2022-07-26T23:36:10.750Z,1.77
2022-07-26T23:39:32.584Z,1.50
2022-07-26T23:42:56.032Z,1.73
2022-07-26T23:46:18.274Z,1.52
2022-07-26T23:49:39.984Z,1.55
2022-07-26T23:53:01.828Z,1.30
2022-07-26T23:56:23.771Z,1.45
2022-07-26T23:59:45.597Z,1.70
